sensor_id;sensor_type;location;lat;lon;timestamp;temperature;humidity
37086;DHT22;23001;45.952;12.676;2023-03-01T02:58:53;4.20;99.90
37086;DHT22;23001;45.952;12.676;2023-03-01T03:01:29;4.10;99.90
37086;DHT22;23001;45.952;12.676;2023-03-01T04:43:05;5.10;99.90
37086;DHT22;23001;45.952;12.676;2023-03-01T04:54:35;5.10;99.90
37086;DHT22;23001;45.952;12.676;2023-03-01T05:15:46;5.60;99.90
37086;DHT22;23001;45.952;12.676;2023-03-01T05:30:31;5.80;99.90
37086;DHT22;23001;45.952;12.676;2023-03-01T05:33:03;5.80;99.90
37086;DHT22;23001;45.952;12.676;2023-03-01T05:48:29;5.90;99.90
37086;DHT22;23001;45.952;12.676;2023-03-01T05:50:54;5.90;99.90
37086;DHT22;23001;45.952;12.676;2023-03-01T05:53:20;6.00;99.90
37086;DHT22;23001;45.952;12.676;2023-03-01T05:56:11;6.00;99.90
37086;DHT22;23001;45.952;12.676;2023-03-01T06:07:52;6.20;99.90
37086;DHT22;23001;45.952;12.676;2023-03-01T06:29:20;6.40;99.90
37086;DHT22;23001;45.952;12.676;2023-03-01T07:13:38;7.20;99.20
37086;DHT22;23001;45.952;12.676;2023-03-01T07:42:38;8.40;98.30
37086;DHT22;23001;45.952;12.676;2023-03-01T08:48:41;10.40;95.90
37086;DHT22;23001;45.952;12.676;2023-03-01T08:51:09;10.50;95.90
37086;DHT22;23001;45.952;12.676;2023-03-01T08:53:38;10.50;96.00
37086;DHT22;23001;45.952;12.676;2023-03-01T09:39:26;11.00;96.00
37086;DHT22;23001;45.952;12.676;2023-03-01T10:30:15;11.00;94.40
37086;DHT22;23001;45.952;12.676;2023-03-01T10:48:43;11.20;93.80
37086;DHT22;23001;45.952;12.676;2023-03-01T11:00:21;11.00;95.00
37086;DHT22;23001;45.952;12.676;2023-03-01T11:05:36;11.00;94.40
37086;DHT22;23001;45.952;12.676;2023-03-01T11:08:05;10.90;94.50
37086;DHT22;23001;45.952;12.676;2023-03-01T11:11:13;10.80;94.60
37086;DHT22;23001;45.952;12.676;2023-03-01T11:16:47;10.80;94.60
37086;DHT22;23001;45.952;12.676;2023-03-01T11:19:39;10.80;94.80
37086;DHT22;23001;45.952;12.676;2023-03-01T11:22:28;10.80;94.20
37086;DHT22;23001;45.952;12.676;2023-03-01T11:28:11;10.80;94.00
37086;DHT22;23001;45.952;12.676;2023-03-01T11:35:53;11.00;94.00
37086;DHT22;23001;45.952;12.676;2023-03-01T11:38:40;11.10;93.50
37086;DHT22;23001;45.952;12.676;2023-03-01T11:41:33;11.30;93.20
37086;DHT22;23001;45.952;12.676;2023-03-01T11:44:20;11.40;93.40
37086;DHT22;23001;45.952;12.676;2023-03-01T11:50:11;11.50;93.30
37086;DHT22;23001;45.952;12.676;2023-03-01T12:01:56;11.30;93.30
37086;DHT22;23001;45.952;12.676;2023-03-01T12:22:06;11.10;93.80
37086;DHT22;23001;45.952;12.676;2023-03-01T12:38:56;10.60;94.70
37086;DHT22;23001;45.952;12.676;2023-03-01T12:53:01;10.40;94.90
37086;DHT22;23001;45.952;12.676;2023-03-01T13:04:07;10.40;94.90
37086;DHT22;23001;45.952;12.676;2023-03-01T13:15:25;10.70;95.00
37086;DHT22;23001;45.952;12.676;2023-03-01T13:23:56;10.90;95.00
37086;DHT22;23001;45.952;12.676;2023-03-01T13:27:08;10.90;94.80
37086;DHT22;23001;45.952;12.676;2023-03-01T13:51:09;11.40;94.40
37086;DHT22;23001;45.952;12.676;2023-03-01T14:02:59;11.60;94.80
37086;DHT22;23001;45.952;12.676;2023-03-01T14:05:25;11.60;95.00
37086;DHT22;23001;45.952;12.676;2023-03-01T14:07:59;11.60;95.00
37086;DHT22;23001;45.952;12.676;2023-03-01T14:10:44;11.60;95.10
37086;DHT22;23001;45.952;12.676;2023-03-01T14:13:17;11.60;94.80
37086;DHT22;23001;45.952;12.676;2023-03-01T14:15:50;11.60;94.90
37086;DHT22;23001;45.952;12.676;2023-03-01T14:18:27;11.60;94.80
37086;DHT22;23001;45.952;12.676;2023-03-01T14:20:55;11.60;95.20
37086;DHT22;23001;45.952;12.676;2023-03-01T14:23:21;11.70;95.20
37086;DHT22;23001;45.952;12.676;2023-03-01T14:25:48;11.70;95.10
37086;DHT22;23001;45.952;12.676;2023-03-01T14:28:21;11.70;95.00
37086;DHT22;23001;45.952;12.676;2023-03-01T14:31:01;11.70;94.80
37086;DHT22;23001;45.952;12.676;2023-03-01T14:33:31;11.80;95.10
37086;DHT22;23001;45.952;12.676;2023-03-01T14:36:02;11.70;94.60
37086;DHT22;23001;45.952;12.676;2023-03-01T14:41:36;11.70;94.70
37086;DHT22;23001;45.952;12.676;2023-03-01T14:46:41;11.60;94.70
37086;DHT22;23001;45.952;12.676;2023-03-01T14:49:14;11.60;94.80
37086;DHT22;23001;45.952;12.676;2023-03-01T14:51:52;11.50;94.90
37086;DHT22;23001;45.952;12.676;2023-03-01T14:54:20;11.50;95.00
37086;DHT22;23001;45.952;12.676;2023-03-01T15:00:07;11.40;94.60
37086;DHT22;23001;45.952;12.676;2023-03-01T15:02:33;11.40;95.00
37086;DHT22;23001;45.952;12.676;2023-03-01T15:05:02;11.40;94.80
37086;DHT22;23001;45.952;12.676;2023-03-01T15:07:33;11.40;94.70
37086;DHT22;23001;45.952;12.676;2023-03-01T15:13:43;11.40;94.60
37086;DHT22;23001;45.952;12.676;2023-03-01T15:16:12;11.40;94.30
37086;DHT22;23001;45.952;12.676;2023-03-01T15:21:37;11.40;94.10
37086;DHT22;23001;45.952;12.676;2023-03-01T15:26:55;11.30;95.20
37086;DHT22;23001;45.952;12.676;2023-03-01T15:29:33;11.10;96.10
37086;DHT22;23001;45.952;12.676;2023-03-01T15:38:22;10.90;97.90
37086;DHT22;23001;45.952;12.676;2023-03-01T16:05:20;10.30;98.70
37086;DHT22;23001;45.952;12.676;2023-03-01T16:07:59;10.30;99.10
37086;DHT22;23001;45.952;12.676;2023-03-01T16:10:37;10.30;99.40
37086;DHT22;23001;45.952;12.676;2023-03-01T16:13:03;10.20;98.50
37086;DHT22;23001;45.952;12.676;2023-03-01T16:15:34;10.20;99.40
37086;DHT22;23001;45.952;12.676;2023-03-01T16:18:01;10.20;99.80
37086;DHT22;23001;45.952;12.676;2023-03-01T16:20:57;10.10;99.80
37086;DHT22;23001;45.952;12.676;2023-03-01T16:23:36;10.00;99.90
37086;DHT22;23001;45.952;12.676;2023-03-01T16:26:02;9.90;99.90
37086;DHT22;23001;45.952;12.676;2023-03-01T16:28:28;9.90;99.90
37086;DHT22;23001;45.952;12.676;2023-03-01T16:31:16;9.80;99.90
37086;DHT22;23001;45.952;12.676;2023-03-01T16:33:40;9.80;99.90
37086;DHT22;23001;45.952;12.676;2023-03-01T16:39:34;9.80;99.90
37086;DHT22;23001;45.952;12.676;2023-03-01T16:42:09;9.70;99.90
37086;DHT22;23001;45.952;12.676;2023-03-01T16:44:34;9.60;99.90
37086;DHT22;23001;45.952;12.676;2023-03-01T16:47:03;9.50;99.90
37086;DHT22;23001;45.952;12.676;2023-03-01T16:49:28;9.40;99.90
37086;DHT22;23001;45.952;12.676;2023-03-01T16:51:54;9.40;99.90
37086;DHT22;23001;45.952;12.676;2023-03-01T16:54:19;9.30;99.90
37086;DHT22;23001;45.952;12.676;2023-03-01T16:56:48;9.20;99.90
37086;DHT22;23001;45.952;12.676;2023-03-01T16:59:14;9.10;99.90
37086;DHT22;23001;45.952;12.676;2023-03-01T17:01:39;9.10;99.90
37086;DHT22;23001;45.952;12.676;2023-03-01T17:04:06;9.00;99.90
37086;DHT22;23001;45.952;12.676;2023-03-01T17:06:32;9.00;99.90
37086;DHT22;23001;45.952;12.676;2023-03-01T17:08:58;8.90;99.90
37086;DHT22;23001;45.952;12.676;2023-03-01T17:11:24;8.90;99.90
37086;DHT22;23001;45.952;12.676;2023-03-01T17:13:50;8.90;99.90
37086;DHT22;23001;45.952;12.676;2023-03-01T17:16:16;8.80;99.90
37086;DHT22;23001;45.952;12.676;2023-03-01T17:18:42;8.80;99.90
37086;DHT22;23001;45.952;12.676;2023-03-01T17:21:08;8.70;99.90
37086;DHT22;23001;45.952;12.676;2023-03-01T17:23:35;8.60;99.90
37086;DHT22;23001;45.952;12.676;2023-03-01T17:26:00;8.50;99.90
37086;DHT22;23001;45.952;12.676;2023-03-01T17:28:28;8.50;99.90
37086;DHT22;23001;45.952;12.676;2023-03-01T17:30:55;8.50;99.90
37086;DHT22;23001;45.952;12.676;2023-03-01T17:33:23;8.40;99.90
37086;DHT22;23001;45.952;12.676;2023-03-01T17:35:49;8.40;99.90
37086;DHT22;23001;45.952;12.676;2023-03-01T17:38:15;8.40;99.90
37086;DHT22;23001;45.952;12.676;2023-03-01T17:40:41;8.30;99.90
37086;DHT22;23001;45.952;12.676;2023-03-01T17:43:15;8.40;99.90
37086;DHT22;23001;45.952;12.676;2023-03-01T17:45:40;8.30;99.90
37086;DHT22;23001;45.952;12.676;2023-03-01T17:48:09;8.30;99.90
37086;DHT22;23001;45.952;12.676;2023-03-01T17:50:35;8.30;99.90
37086;DHT22;23001;45.952;12.676;2023-03-01T17:53:02;8.20;99.90
37086;DHT22;23001;45.952;12.676;2023-03-01T17:55:33;8.20;99.90
37086;DHT22;23001;45.952;12.676;2023-03-01T17:57:58;8.20;99.90
37086;DHT22;23001;45.952;12.676;2023-03-01T18:00:25;8.30;99.90
37086;DHT22;23001;45.952;12.676;2023-03-01T18:02:51;8.30;99.90
37086;DHT22;23001;45.952;12.676;2023-03-01T18:05:18;8.30;99.90
37086;DHT22;23001;45.952;12.676;2023-03-01T18:07:44;8.30;99.90
37086;DHT22;23001;45.952;12.676;2023-03-01T18:10:11;8.30;99.90
37086;DHT22;23001;45.952;12.676;2023-03-01T18:12:46;8.20;99.90
37086;DHT22;23001;45.952;12.676;2023-03-01T18:15:12;8.20;99.90
37086;DHT22;23001;45.952;12.676;2023-03-01T18:17:37;8.20;99.90
37086;DHT22;23001;45.952;12.676;2023-03-01T18:20:04;8.30;99.90
37086;DHT22;23001;45.952;12.676;2023-03-01T18:22:50;8.30;99.90
37086;DHT22;23001;45.952;12.676;2023-03-01T18:25:17;8.30;99.90
37086;DHT22;23001;45.952;12.676;2023-03-01T18:27:43;8.20;99.90
37086;DHT22;23001;45.952;12.676;2023-03-01T18:30:09;8.20;99.90
37086;DHT22;23001;45.952;12.676;2023-03-01T18:32:35;8.20;99.90
37086;DHT22;23001;45.952;12.676;2023-03-01T18:35:08;8.10;99.90
37086;DHT22;23001;45.952;12.676;2023-03-01T18:37:34;8.10;99.90
37086;DHT22;23001;45.952;12.676;2023-03-01T18:39:59;8.10;99.90
37086;DHT22;23001;45.952;12.676;2023-03-01T18:42:25;8.10;99.90
37086;DHT22;23001;45.952;12.676;2023-03-01T18:44:50;8.00;99.90
37086;DHT22;23001;45.952;12.676;2023-03-01T18:47:18;8.00;99.90
37086;DHT22;23001;45.952;12.676;2023-03-01T18:49:43;8.00;99.90
37086;DHT22;23001;45.952;12.676;2023-03-01T18:52:09;8.00;99.90
37086;DHT22;23001;45.952;12.676;2023-03-01T18:54:38;8.00;99.90
37086;DHT22;23001;45.952;12.676;2023-03-01T18:57:05;8.00;99.90
37086;DHT22;23001;45.952;12.676;2023-03-01T18:59:31;8.00;99.90
37086;DHT22;23001;45.952;12.676;2023-03-01T19:01:57;7.90;99.90
37086;DHT22;23001;45.952;12.676;2023-03-01T19:04:30;7.90;99.90
37086;DHT22;23001;45.952;12.676;2023-03-01T19:06:55;8.00;99.90
37086;DHT22;23001;45.952;12.676;2023-03-01T19:09:22;7.90;99.90
37086;DHT22;23001;45.952;12.676;2023-03-01T19:11:47;7.90;99.90
37086;DHT22;23001;45.952;12.676;2023-03-01T19:14:13;7.90;99.90
37086;DHT22;23001;45.952;12.676;2023-03-01T19:16:41;7.90;99.90
37086;DHT22;23001;45.952;12.676;2023-03-01T19:19:06;7.90;99.90
37086;DHT22;23001;45.952;12.676;2023-03-01T19:21:34;7.90;99.90
37086;DHT22;23001;45.952;12.676;2023-03-01T19:23:59;7.90;99.90
37086;DHT22;23001;45.952;12.676;2023-03-01T19:26:26;7.90;99.90
37086;DHT22;23001;45.952;12.676;2023-03-01T19:28:55;7.90;99.90
37086;DHT22;23001;45.952;12.676;2023-03-01T19:31:22;7.90;99.90
37086;DHT22;23001;45.952;12.676;2023-03-01T19:33:48;7.90;99.90
37086;DHT22;23001;45.952;12.676;2023-03-01T19:36:20;7.90;99.90
37086;DHT22;23001;45.952;12.676;2023-03-01T19:38:46;7.90;99.90
37086;DHT22;23001;45.952;12.676;2023-03-01T19:41:13;7.90;99.90
37086;DHT22;23001;45.952;12.676;2023-03-01T19:43:42;7.90;99.90
37086;DHT22;23001;45.952;12.676;2023-03-01T19:46:08;7.90;99.90
37086;DHT22;23001;45.952;12.676;2023-03-01T19:48:37;7.90;99.90
37086;DHT22;23001;45.952;12.676;2023-03-01T19:51:06;7.90;99.90
37086;DHT22;23001;45.952;12.676;2023-03-01T19:53:32;7.90;99.90
37086;DHT22;23001;45.952;12.676;2023-03-01T19:58:34;7.90;99.90
37086;DHT22;23001;45.952;12.676;2023-03-01T20:01:00;7.90;99.90
37086;DHT22;23001;45.952;12.676;2023-03-01T20:03:26;7.90;99.90
37086;DHT22;23001;45.952;12.676;2023-03-01T20:05:55;7.90;99.90
37086;DHT22;23001;45.952;12.676;2023-03-01T20:11:11;7.90;99.90
37086;DHT22;23001;45.952;12.676;2023-03-01T20:13:38;8.00;99.90
37086;DHT22;23001;45.952;12.676;2023-03-01T20:16:16;7.90;99.90
37086;DHT22;23001;45.952;12.676;2023-03-01T20:21:47;8.00;99.90
37086;DHT22;23001;45.952;12.676;2023-03-01T20:24:23;8.00;99.90
37086;DHT22;23001;45.952;12.676;2023-03-01T20:27:01;8.00;99.90
37086;DHT22;23001;45.952;12.676;2023-03-01T20:29:29;8.00;99.90
37086;DHT22;23001;45.952;12.676;2023-03-01T20:32:01;8.00;99.90
37086;DHT22;23001;45.952;12.676;2023-03-01T20:34:35;8.10;99.90
37086;DHT22;23001;45.952;12.676;2023-03-01T20:37:01;8.00;99.90
37086;DHT22;23001;45.952;12.676;2023-03-01T20:39:32;8.10;99.90
37086;DHT22;23001;45.952;12.676;2023-03-01T20:42:03;8.10;99.90
37086;DHT22;23001;45.952;12.676;2023-03-01T20:44:29;8.10;99.90
37086;DHT22;23001;45.952;12.676;2023-03-01T20:47:16;8.10;99.90
37086;DHT22;23001;45.952;12.676;2023-03-01T20:49:44;8.00;99.90
37086;DHT22;23001;45.952;12.676;2023-03-01T20:52:10;8.10;99.90
37086;DHT22;23001;45.952;12.676;2023-03-01T21:00:20;8.20;99.90
37086;DHT22;23001;45.952;12.676;2023-03-01T21:02:53;8.20;99.90
37086;DHT22;23001;45.952;12.676;2023-03-01T21:54:30;8.60;99.90
37086;DHT22;23001;45.952;12.676;2023-03-01T21:57:01;8.60;99.90
